CheckWX is a tool to help pilots better visualize weather data.  It is not intended as a substitute for an official pre-flight weather briefing.

00:33:50 UTC

KSFY METAR
Tri-Township Airport
Savanna, Illinois, USA
Current

39 mins ago

KSFY 202355Z AUTO 22004KT 10SM CLR 19/M06 A2982 RMK AO2
Observed
Apr-20 @ 23:55 UTC
Wind
  • 220° at 4 KTS
Visibility
10 SM
Flight Rules
VFR
Cloud Levels
  • Clear skies
Temperature
19°C / 66°F
Dewpoint
-6°C / 21°F
Humidity
18%
Altimeter
29.82" Hg
Pressure
1009.82 hPa
Previous

58 mins ago

KSFY 202336Z AUTO 00000KT 10SM CLR 19/M07 A2982 RMK AO2
Observed
Apr-20 @ 23:36 UTC
Visibility
10 SM
Flight Rules
VFR
Cloud Levels
  • Clear skies
Temperature
19°C / 66°F
Dewpoint
-7°C / 19°F
Humidity
17%
Altimeter
29.82" Hg
Pressure
1009.82 hPa
Previous

2 hours ago

KSFY 202255Z AUTO 30004KT 10SM CLR 20/M08 A2982 RMK AO2
Observed
Apr-20 @ 22:55 UTC
Wind
  • 300° at 4 KTS
Visibility
10 SM
Flight Rules
VFR
Cloud Levels
  • Clear skies
Temperature
20°C / 68°F
Dewpoint
-8°C / 18°F
Humidity
14%
Altimeter
29.82" Hg
Pressure
1009.82 hPa